sensor_id;sensor_type;location;lat;lon;timestamp;pressure;altitude;pressure_sealevel;temperature;humidity
31681;BME280;18281;51.364;9.566;2023-08-06T00:00:15;99149.66;;;13.73;100.00
31681;BME280;18281;51.364;9.566;2023-08-06T00:02:40;99146.56;;;13.68;100.00
31681;BME280;18281;51.364;9.566;2023-08-06T00:05:05;99142.72;;;13.72;100.00
31681;BME280;18281;51.364;9.566;2023-08-06T00:07:30;99133.91;;;13.83;100.00
31681;BME280;18281;51.364;9.566;2023-08-06T00:09:56;99133.66;;;13.86;100.00
31681;BME280;18281;51.364;9.566;2023-08-06T00:12:21;99132.00;;;13.85;100.00
31681;BME280;18281;51.364;9.566;2023-08-06T00:14:49;99131.66;;;13.79;100.00
31681;BME280;18281;51.364;9.566;2023-08-06T00:17:15;99129.03;;;13.79;100.00
31681;BME280;18281;51.364;9.566;2023-08-06T00:19:40;99117.88;;;13.75;100.00
31681;BME280;18281;51.364;9.566;2023-08-06T00:22:05;99110.31;;;13.61;100.00
31681;BME280;18281;51.364;9.566;2023-08-06T00:24:30;99114.78;;;13.70;100.00
31681;BME280;18281;51.364;9.566;2023-08-06T00:26:56;99114.59;;;13.62;100.00
31681;BME280;18281;51.364;9.566;2023-08-06T00:29:21;99108.28;;;13.53;100.00
31681;BME280;18281;51.364;9.566;2023-08-06T00:31:46;99116.13;;;13.64;100.00
31681;BME280;18281;51.364;9.566;2023-08-06T00:34:11;99114.47;;;13.63;100.00
31681;BME280;18281;51.364;9.566;2023-08-06T00:36:37;99110.31;;;13.61;100.00
31681;BME280;18281;51.364;9.566;2023-08-06T00:39:02;99104.31;;;13.58;100.00
31681;BME280;18281;51.364;9.566;2023-08-06T00:41:27;99095.91;;;13.65;100.00
31681;BME280;18281;51.364;9.566;2023-08-06T00:43:53;99088.50;;;13.58;100.00
31681;BME280;18281;51.364;9.566;2023-08-06T00:46:18;99080.84;;;13.55;100.00
31681;BME280;18281;51.364;9.566;2023-08-06T00:48:43;99072.19;;;13.32;100.00
31681;BME280;18281;51.364;9.566;2023-08-06T00:51:12;99067.88;;;13.52;100.00
31681;BME280;18281;51.364;9.566;2023-08-06T00:53:38;99070.75;;;13.61;100.00
31681;BME280;18281;51.364;9.566;2023-08-06T00:56:03;99068.75;;;13.53;100.00
31681;BME280;18281;51.364;9.566;2023-08-06T00:58:29;99063.06;;;13.57;100.00
31681;BME280;18281;51.364;9.566;2023-08-06T01:00:54;99055.69;;;13.51;100.00
31681;BME280;18281;51.364;9.566;2023-08-06T01:03:19;99048.41;;;13.43;100.00
31681;BME280;18281;51.364;9.566;2023-08-06T01:05:45;99045.66;;;13.45;100.00
31681;BME280;18281;51.364;9.566;2023-08-06T01:11:21;99051.97;;;13.54;100.00
31681;BME280;18281;51.364;9.566;2023-08-06T01:13:56;99047.06;;;13.49;100.00
31681;BME280;18281;51.364;9.566;2023-08-06T01:16:23;99044.56;;;13.48;100.00
31681;BME280;18281;51.364;9.566;2023-08-06T01:18:49;99054.00;;;13.50;100.00
31681;BME280;18281;51.364;9.566;2023-08-06T01:21:18;99048.75;;;13.50;100.00
31681;BME280;18281;51.364;9.566;2023-08-06T01:23:43;99048.47;;;13.53;100.00
31681;BME280;18281;51.364;9.566;2023-08-06T01:28:59;99044.22;;;13.41;100.00
31681;BME280;18281;51.364;9.566;2023-08-06T01:31:26;99047.00;;;13.39;100.00
31681;BME280;18281;51.364;9.566;2023-08-06T01:33:52;99051.41;;;13.39;100.00
31681;BME280;18281;51.364;9.566;2023-08-06T01:36:18;99045.06;;;13.41;100.00
31681;BME280;18281;51.364;9.566;2023-08-06T01:38:44;99038.00;;;13.42;100.00
31681;BME280;18281;51.364;9.566;2023-08-06T01:41:09;99038.47;;;13.15;100.00
31681;BME280;18281;51.364;9.566;2023-08-06T01:43:34;99037.00;;;13.22;100.00
31681;BME280;18281;51.364;9.566;2023-08-06T01:46:00;99041.31;;;13.23;100.00
31681;BME280;18281;51.364;9.566;2023-08-06T01:48:25;99041.25;;;13.34;100.00
31681;BME280;18281;51.364;9.566;2023-08-06T01:50:50;99038.75;;;13.33;100.00
31681;BME280;18281;51.364;9.566;2023-08-06T01:53:15;99036.63;;;13.26;100.00
31681;BME280;18281;51.364;9.566;2023-08-06T01:55:41;99042.72;;;13.27;100.00
31681;BME280;18281;51.364;9.566;2023-08-06T01:58:06;99039.84;;;13.30;100.00
31681;BME280;18281;51.364;9.566;2023-08-06T02:00:31;99041.06;;;13.26;100.00
31681;BME280;18281;51.364;9.566;2023-08-06T02:02:56;99039.97;;;13.29;100.00
31681;BME280;18281;51.364;9.566;2023-08-06T02:05:22;99042.03;;;13.25;100.00
31681;BME280;18281;51.364;9.566;2023-08-06T02:07:47;99046.06;;;13.29;100.00
31681;BME280;18281;51.364;9.566;2023-08-06T02:10:12;99039.66;;;13.22;100.00
31681;BME280;18281;51.364;9.566;2023-08-06T02:12:37;99042.38;;;13.20;100.00
31681;BME280;18281;51.364;9.566;2023-08-06T02:15:03;99033.84;;;13.28;100.00
31681;BME280;18281;51.364;9.566;2023-08-06T02:17:28;99021.75;;;13.25;100.00
31681;BME280;18281;51.364;9.566;2023-08-06T02:19:53;99019.97;;;13.26;100.00
31681;BME280;18281;51.364;9.566;2023-08-06T02:22:19;99022.16;;;13.21;100.00
31681;BME280;18281;51.364;9.566;2023-08-06T02:24:44;99026.25;;;13.14;100.00
31681;BME280;18281;51.364;9.566;2023-08-06T02:27:09;99022.97;;;13.21;100.00
31681;BME280;18281;51.364;9.566;2023-08-06T02:29:34;99016.44;;;13.16;100.00
31681;BME280;18281;51.364;9.566;2023-08-06T02:32:00;99008.66;;;13.14;100.00
31681;BME280;18281;51.364;9.566;2023-08-06T02:34:27;99006.19;;;13.01;100.00
31681;BME280;18281;51.364;9.566;2023-08-06T02:36:52;98997.81;;;12.96;100.00
31681;BME280;18281;51.364;9.566;2023-08-06T02:39:17;98996.38;;;13.03;100.00
31681;BME280;18281;51.364;9.566;2023-08-06T02:41:43;98989.44;;;12.91;100.00
31681;BME280;18281;51.364;9.566;2023-08-06T02:44:09;98983.09;;;12.93;100.00
31681;BME280;18281;51.364;9.566;2023-08-06T02:46:34;98981.44;;;12.92;100.00
31681;BME280;18281;51.364;9.566;2023-08-06T02:48:59;98974.47;;;12.91;100.00
31681;BME280;18281;51.364;9.566;2023-08-06T02:51:24;98971.81;;;12.91;100.00
31681;BME280;18281;51.364;9.566;2023-08-06T02:53:50;98965.50;;;12.83;100.00
31681;BME280;18281;51.364;9.566;2023-08-06T02:56:15;98976.16;;;12.92;100.00
31681;BME280;18281;51.364;9.566;2023-08-06T02:58:40;98966.34;;;12.83;100.00
31681;BME280;18281;51.364;9.566;2023-08-06T03:01:06;98962.47;;;12.66;100.00
31681;BME280;18281;51.364;9.566;2023-08-06T03:03:32;98958.34;;;12.73;100.00
31681;BME280;18281;51.364;9.566;2023-08-06T03:05:57;98957.84;;;12.47;100.00
31681;BME280;18281;51.364;9.566;2023-08-06T03:08:23;98947.22;;;12.37;100.00
31681;BME280;18281;51.364;9.566;2023-08-06T03:10:48;98938.81;;;12.55;100.00
31681;BME280;18281;51.364;9.566;2023-08-06T03:13:14;98940.66;;;12.32;100.00
31681;BME280;18281;51.364;9.566;2023-08-06T03:15:39;98932.91;;;12.19;100.00
31681;BME280;18281;51.364;9.566;2023-08-06T03:18:05;98935.59;;;12.40;100.00
31681;BME280;18281;51.364;9.566;2023-08-06T03:20:31;98933.53;;;12.55;100.00
31681;BME280;18281;51.364;9.566;2023-08-06T03:22:56;98929.09;;;12.55;100.00
31681;BME280;18281;51.364;9.566;2023-08-06T03:25:22;98934.84;;;12.61;100.00
31681;BME280;18281;51.364;9.566;2023-08-06T03:27:47;98928.63;;;12.50;100.00
31681;BME280;18281;51.364;9.566;2023-08-06T03:30:12;98928.63;;;12.50;100.00
31681;BME280;18281;51.364;9.566;2023-08-06T03:32:37;98919.56;;;12.43;100.00
31681;BME280;18281;51.364;9.566;2023-08-06T03:35:03;98923.50;;;12.49;100.00
31681;BME280;18281;51.364;9.566;2023-08-06T03:37:28;98927.69;;;12.40;100.00
31681;BME280;18281;51.364;9.566;2023-08-06T03:39:54;98916.94;;;12.43;100.00
31681;BME280;18281;51.364;9.566;2023-08-06T03:42:19;98917.56;;;12.35;100.00
31681;BME280;18281;51.364;9.566;2023-08-06T03:44:44;98915.41;;;12.40;100.00
31681;BME280;18281;51.364;9.566;2023-08-06T03:47:09;98902.72;;;12.34;100.00
31681;BME280;18281;51.364;9.566;2023-08-06T03:49:34;98911.81;;;12.30;100.00
31681;BME280;18281;51.364;9.566;2023-08-06T03:52:00;98906.63;;;12.40;100.00
31681;BME280;18281;51.364;9.566;2023-08-06T03:54:25;98915.19;;;12.32;100.00
31681;BME280;18281;51.364;9.566;2023-08-06T03:56:50;98916.00;;;12.33;100.00
31681;BME280;18281;51.364;9.566;2023-08-06T03:59:15;98912.34;;;12.24;100.00
31681;BME280;18281;51.364;9.566;2023-08-06T04:01:41;98904.44;;;12.24;100.00
31681;BME280;18281;51.364;9.566;2023-08-06T04:04:06;98906.09;;;12.25;100.00
31681;BME280;18281;51.364;9.566;2023-08-06T04:06:31;98903.81;;;12.32;100.00
31681;BME280;18281;51.364;9.566;2023-08-06T04:08:56;98902.38;;;12.28;100.00
31681;BME280;18281;51.364;9.566;2023-08-06T04:11:22;98904.31;;;12.25;100.00
31681;BME280;18281;51.364;9.566;2023-08-06T04:13:47;98899.06;;;12.14;100.00
31681;BME280;18281;51.364;9.566;2023-08-06T04:16:12;98901.13;;;11.99;100.00
31681;BME280;18281;51.364;9.566;2023-08-06T04:18:39;98907.47;;;11.97;100.00
31681;BME280;18281;51.364;9.566;2023-08-06T04:21:04;98910.53;;;12.13;100.00
31681;BME280;18281;51.364;9.566;2023-08-06T04:23:30;98915.78;;;12.13;100.00
31681;BME280;18281;51.364;9.566;2023-08-06T04:25:58;98917.72;;;11.88;100.00
31681;BME280;18281;51.364;9.566;2023-08-06T04:28:24;98919.19;;;11.92;100.00
31681;BME280;18281;51.364;9.566;2023-08-06T04:30:49;98917.38;;;11.93;100.00
31681;BME280;18281;51.364;9.566;2023-08-06T04:33:14;98905.44;;;12.00;100.00
31681;BME280;18281;51.364;9.566;2023-08-06T04:35:39;98914.88;;;12.03;100.00
31681;BME280;18281;51.364;9.566;2023-08-06T04:38:05;98912.97;;;11.94;100.00
31681;BME280;18281;51.364;9.566;2023-08-06T04:40:32;98914.03;;;11.91;100.00
31681;BME280;18281;51.364;9.566;2023-08-06T04:42:57;98923.22;;;11.85;100.00
31681;BME280;18281;51.364;9.566;2023-08-06T04:45:23;98904.69;;;11.98;100.00
31681;BME280;18281;51.364;9.566;2023-08-06T04:47:49;98904.34;;;11.91;100.00
31681;BME280;18281;51.364;9.566;2023-08-06T04:50:14;98904.81;;;11.97;100.00
31681;BME280;18281;51.364;9.566;2023-08-06T04:52:39;98910.34;;;11.94;100.00
31681;BME280;18281;51.364;9.566;2023-08-06T04:55:05;98909.34;;;11.83;100.00
31681;BME280;18281;51.364;9.566;2023-08-06T04:57:31;98920.25;;;11.90;100.00
31681;BME280;18281;51.364;9.566;2023-08-06T04:59:56;98920.72;;;11.84;100.00
31681;BME280;18281;51.364;9.566;2023-08-06T05:02:21;98921.44;;;11.63;100.00
31681;BME280;18281;51.364;9.566;2023-08-06T05:04:46;98919.88;;;11.83;100.00
31681;BME280;18281;51.364;9.566;2023-08-06T05:07:12;98920.47;;;11.87;100.00
31681;BME280;18281;51.364;9.566;2023-08-06T05:09:37;98921.47;;;12.52;100.00
31681;BME280;18281;51.364;9.566;2023-08-06T05:12:03;98923.25;;;12.84;100.00
31681;BME280;18281;51.364;9.566;2023-08-06T05:14:29;98912.06;;;13.03;100.00
31681;BME280;18281;51.364;9.566;2023-08-06T05:16:54;98904.19;;;13.13;100.00
31681;BME280;18281;51.364;9.566;2023-08-06T05:19:19;98916.09;;;13.29;100.00
31681;BME280;18281;51.364;9.566;2023-08-06T05:21:44;98914.75;;;13.34;100.00
31681;BME280;18281;51.364;9.566;2023-08-06T05:24:10;98910.47;;;13.43;100.00
31681;BME280;18281;51.364;9.566;2023-08-06T05:26:35;98913.56;;;13.48;100.00
31681;BME280;18281;51.364;9.566;2023-08-06T05:29:00;98920.13;;;13.54;100.00
31681;BME280;18281;51.364;9.566;2023-08-06T05:31:26;98912.75;;;13.57;100.00
31681;BME280;18281;51.364;9.566;2023-08-06T05:33:51;98907.25;;;13.61;100.00
31681;BME280;18281;51.364;9.566;2023-08-06T05:36:16;98909.47;;;13.65;100.00
31681;BME280;18281;51.364;9.566;2023-08-06T05:38:42;98904.06;;;13.67;100.00
31681;BME280;18281;51.364;9.566;2023-08-06T05:41:08;98907.84;;;13.74;100.00
31681;BME280;18281;51.364;9.566;2023-08-06T05:43:33;98914.25;;;13.81;100.00
31681;BME280;18281;51.364;9.566;2023-08-06T05:45:58;98901.28;;;13.99;100.00
31681;BME280;18281;51.364;9.566;2023-08-06T05:48:23;98911.88;;;14.09;100.00
31681;BME280;18281;51.364;9.566;2023-08-06T05:50:50;98904.94;;;14.08;100.00
31681;BME280;18281;51.364;9.566;2023-08-06T05:53:15;98893.97;;;13.82;100.00
31681;BME280;18281;51.364;9.566;2023-08-06T05:55:40;98900.75;;;13.96;100.00
31681;BME280;18281;51.364;9.566;2023-08-06T05:58:05;98896.38;;;13.85;100.00
31681;BME280;18281;51.364;9.566;2023-08-06T06:00:30;98896.69;;;13.91;100.00
31681;BME280;18281;51.364;9.566;2023-08-06T06:02:56;98894.13;;;13.80;100.00
31681;BME280;18281;51.364;9.566;2023-08-06T06:05:21;98884.53;;;13.79;100.00
31681;BME280;18281;51.364;9.566;2023-08-06T06:07:46;98886.78;;;13.84;100.00
31681;BME280;18281;51.364;9.566;2023-08-06T06:10:11;98886.22;;;13.80;100.00
31681;BME280;18281;51.364;9.566;2023-08-06T06:12:38;98882.69;;;13.70;100.00
31681;BME280;18281;51.364;9.566;2023-08-06T06:15:03;98877.56;;;13.68;100.00
31681;BME280;18281;51.364;9.566;2023-08-06T06:17:29;98875.63;;;14.01;100.00
31681;BME280;18281;51.364;9.566;2023-08-06T06:19:54;98876.88;;;14.07;100.00
31681;BME280;18281;51.364;9.566;2023-08-06T06:22:19;98869.41;;;14.32;100.00
31681;BME280;18281;51.364;9.566;2023-08-06T06:24:45;98873.88;;;14.41;100.00
31681;BME280;18281;51.364;9.566;2023-08-06T06:27:10;98866.22;;;14.67;100.00
31681;BME280;18281;51.364;9.566;2023-08-06T06:29:35;98865.25;;;14.88;100.00
31681;BME280;18281;51.364;9.566;2023-08-06T06:32:00;98858.25;;;15.06;100.00
31681;BME280;18281;51.364;9.566;2023-08-06T06:34:26;98852.69;;;15.09;100.00
31681;BME280;18281;51.364;9.566;2023-08-06T06:36:51;98850.63;;;15.41;100.00
31681;BME280;18281;51.364;9.566;2023-08-06T06:39:17;98852.31;;;15.42;100.00
31681;BME280;18281;51.364;9.566;2023-08-06T06:41:42;98854.25;;;15.50;100.00
31681;BME280;18281;51.364;9.566;2023-08-06T06:44:09;98861.16;;;15.60;100.00
31681;BME280;18281;51.364;9.566;2023-08-06T06:46:34;98859.44;;;15.79;100.00
31681;BME280;18281;51.364;9.566;2023-08-06T06:48:59;98860.53;;;15.67;100.00
31681;BME280;18281;51.364;9.566;2023-08-06T06:51:24;98855.72;;;15.62;100.00
31681;BME280;18281;51.364;9.566;2023-08-06T06:53:50;98856.00;;;15.69;100.00
31681;BME280;18281;51.364;9.566;2023-08-06T06:56:15;98860.31;;;15.70;100.00
31681;BME280;18281;51.364;9.566;2023-08-06T06:58:40;98854.13;;;15.79;100.00
31681;BME280;18281;51.364;9.566;2023-08-06T07:01:06;98851.84;;;15.84;100.00
31681;BME280;18281;51.364;9.566;2023-08-06T07:03:31;98855.19;;;15.86;100.00
31681;BME280;18281;51.364;9.566;2023-08-06T07:05:57;98845.09;;;15.34;100.00
31681;BME280;18281;51.364;9.566;2023-08-06T07:08:22;98849.59;;;15.62;100.00
31681;BME280;18281;51.364;9.566;2023-08-06T07:10:47;98853.13;;;15.80;100.00
31681;BME280;18281;51.364;9.566;2023-08-06T07:13:13;98843.16;;;15.74;100.00
31681;BME280;18281;51.364;9.566;2023-08-06T07:15:38;98841.06;;;15.68;100.00
31681;BME280;18281;51.364;9.566;2023-08-06T07:18:05;98844.47;;;15.88;100.00
31681;BME280;18281;51.364;9.566;2023-08-06T07:20:30;98849.84;;;15.96;100.00
31681;BME280;18281;51.364;9.566;2023-08-06T07:22:58;98848.13;;;16.05;100.00
31681;BME280;18281;51.364;9.566;2023-08-06T07:25:23;98841.78;;;16.16;100.00
31681;BME280;18281;51.364;9.566;2023-08-06T07:27:49;98846.19;;;15.79;100.00
31681;BME280;18281;51.364;9.566;2023-08-06T07:30:14;98850.22;;;15.83;100.00
31681;BME280;18281;51.364;9.566;2023-08-06T07:32:39;98848.00;;;15.79;100.00
31681;BME280;18281;51.364;9.566;2023-08-06T07:35:04;98843.31;;;15.63;100.00
31681;BME280;18281;51.364;9.566;2023-08-06T07:37:30;98843.22;;;15.54;100.00
31681;BME280;18281;51.364;9.566;2023-08-06T07:39:56;98847.75;;;15.72;100.00
31681;BME280;18281;51.364;9.566;2023-08-06T07:42:21;98841.47;;;15.73;100.00
31681;BME280;18281;51.364;9.566;2023-08-06T07:44:51;98847.66;;;15.91;100.00
31681;BME280;18281;51.364;9.566;2023-08-06T07:47:17;98841.00;;;15.87;100.00
31681;BME280;18281;51.364;9.566;2023-08-06T07:49:42;98841.06;;;15.96;100.00
31681;BME280;18281;51.364;9.566;2023-08-06T07:52:07;98848.31;;;15.66;100.00
31681;BME280;18281;51.364;9.566;2023-08-06T07:54:32;98839.09;;;15.98;100.00
31681;BME280;18281;51.364;9.566;2023-08-06T07:57:04;98839.94;;;16.16;100.00
31681;BME280;18281;51.364;9.566;2023-08-06T07:59:35;98841.69;;;16.25;100.00
31681;BME280;18281;51.364;9.566;2023-08-06T08:02:00;98838.78;;;16.29;100.00
31681;BME280;18281;51.364;9.566;2023-08-06T08:04:28;98836.78;;;16.31;100.00
31681;BME280;18281;51.364;9.566;2023-08-06T08:06:56;98841.19;;;16.40;100.00
31681;BME280;18281;51.364;9.566;2023-08-06T08:09:21;98840.25;;;16.49;100.00
31681;BME280;18281;51.364;9.566;2023-08-06T08:11:49;98841.78;;;16.52;100.00
31681;BME280;18281;51.364;9.566;2023-08-06T08:14:15;98840.50;;;16.56;100.00
31681;BME280;18281;51.364;9.566;2023-08-06T08:16:40;98838.09;;;16.63;100.00
31681;BME280;18281;51.364;9.566;2023-08-06T08:19:05;98842.25;;;16.65;100.00
31681;BME280;18281;51.364;9.566;2023-08-06T08:21:34;98833.47;;;16.65;100.00
31681;BME280;18281;51.364;9.566;2023-08-06T08:24:03;98836.88;;;16.57;100.00
31681;BME280;18281;51.364;9.566;2023-08-06T08:26:29;98839.75;;;16.64;100.00
31681;BME280;18281;51.364;9.566;2023-08-06T08:28:57;98824.53;;;16.66;100.00
31681;BME280;18281;51.364;9.566;2023-08-06T08:31:28;98830.13;;;16.63;100.00
31681;BME280;18281;51.364;9.566;2023-08-06T08:33:57;98826.34;;;16.65;100.00
31681;BME280;18281;51.364;9.566;2023-08-06T08:36:24;98817.25;;;16.68;100.00
31681;BME280;18281;51.364;9.566;2023-08-06T08:38:52;98820.88;;;16.67;100.00
31681;BME280;18281;51.364;9.566;2023-08-06T08:41:18;98824.22;;;16.69;100.00
31681;BME280;18281;51.364;9.566;2023-08-06T08:43:45;98825.97;;;16.60;100.00
31681;BME280;18281;51.364;9.566;2023-08-06T08:46:11;98824.53;;;16.66;100.00
31681;BME280;18281;51.364;9.566;2023-08-06T08:48:40;98821.09;;;16.73;100.00
31681;BME280;18281;51.364;9.566;2023-08-06T08:51:05;98821.13;;;17.00;100.00
31681;BME280;18281;51.364;9.566;2023-08-06T08:53:31;98818.19;;;17.11;98.26
31681;BME280;18281;51.364;9.566;2023-08-06T08:55:56;98811.34;;;17.26;97.72
31681;BME280;18281;51.364;9.566;2023-08-06T08:58:22;98813.72;;;17.38;98.23
31681;BME280;18281;51.364;9.566;2023-08-06T09:00:48;98810.31;;;17.27;99.85
31681;BME280;18281;51.364;9.566;2023-08-06T09:03:13;98810.00;;;17.22;99.38
31681;BME280;18281;51.364;9.566;2023-08-06T09:05:40;98804.97;;;17.19;99.04
31681;BME280;18281;51.364;9.566;2023-08-06T09:08:08;98819.38;;;17.17;99.44
31681;BME280;18281;51.364;9.566;2023-08-06T09:10:36;98813.41;;;17.15;98.31
31681;BME280;18281;51.364;9.566;2023-08-06T09:13:03;98811.94;;;17.20;100.00
31681;BME280;18281;51.364;9.566;2023-08-06T09:15:29;98809.66;;;17.25;100.00
31681;BME280;18281;51.364;9.566;2023-08-06T09:17:55;98815.63;;;17.27;100.00
31681;BME280;18281;51.364;9.566;2023-08-06T09:20:22;98817.28;;;17.29;100.00
31681;BME280;18281;51.364;9.566;2023-08-06T09:25:36;98816.69;;;17.35;100.00
31681;BME280;18281;51.364;9.566;2023-08-06T09:28:20;98820.00;;;17.37;100.00
31681;BME280;18281;51.364;9.566;2023-08-06T09:30:55;98810.09;;;17.39;100.00
31681;BME280;18281;51.364;9.566;2023-08-06T09:33:23;98808.25;;;17.39;99.40
31681;BME280;18281;51.364;9.566;2023-08-06T09:35:49;98814.06;;;17.35;98.76
31681;BME280;18281;51.364;9.566;2023-08-06T09:38:19;98816.56;;;17.45;99.55
31681;BME280;18281;51.364;9.566;2023-08-06T09:40:48;98816.41;;;17.46;98.11
31681;BME280;18281;51.364;9.566;2023-08-06T09:43:13;98801.53;;;17.53;96.89
31681;BME280;18281;51.364;9.566;2023-08-06T09:45:51;98805.16;;;17.52;97.86
31681;BME280;18281;51.364;9.566;2023-08-06T09:51:24;98804.84;;;17.55;95.95
31681;BME280;18281;51.364;9.566;2023-08-06T09:54:28;98800.88;;;17.68;95.86
31681;BME280;18281;51.364;9.566;2023-08-06T09:56:55;98802.41;;;17.70;95.18
31681;BME280;18281;51.364;9.566;2023-08-06T09:59:20;98793.13;;;17.74;96.78
31681;BME280;18281;51.364;9.566;2023-08-06T10:01:46;98794.31;;;17.80;95.80
31681;BME280;18281;51.364;9.566;2023-08-06T10:04:29;98782.56;;;17.91;92.61
31681;BME280;18281;51.364;9.566;2023-08-06T10:07:00;98781.75;;;18.07;94.10
31681;BME280;18281;51.364;9.566;2023-08-06T10:09:26;98785.13;;;18.34;96.82
31681;BME280;18281;51.364;9.566;2023-08-06T10:15:10;98766.66;;;18.57;93.73
31681;BME280;18281;51.364;9.566;2023-08-06T10:17:50;98767.78;;;18.71;93.64
31681;BME280;18281;51.364;9.566;2023-08-06T10:26:18;98757.81;;;18.89;95.05
31681;BME280;18281;51.364;9.566;2023-08-06T10:34:53;98747.41;;;19.27;92.71
31681;BME280;18281;51.364;9.566;2023-08-06T10:37:19;98750.41;;;19.16;92.08
31681;BME280;18281;51.364;9.566;2023-08-06T10:39:51;98751.56;;;19.30;91.78
31681;BME280;18281;51.364;9.566;2023-08-06T10:42:21;98746.81;;;19.49;90.97
31681;BME280;18281;51.364;9.566;2023-08-06T10:45:10;98733.97;;;19.52;90.53
31681;BME280;18281;51.364;9.566;2023-08-06T10:47:38;98736.91;;;19.66;90.73
31681;BME280;18281;51.364;9.566;2023-08-06T10:50:04;98736.72;;;19.67;91.21
31681;BME280;18281;51.364;9.566;2023-08-06T10:52:30;98729.84;;;19.81;91.80
31681;BME280;18281;51.364;9.566;2023-08-06T10:54:56;98732.06;;;19.92;91.75
31681;BME280;18281;51.364;9.566;2023-08-06T10:57:21;98734.75;;;20.16;90.19
31681;BME280;18281;51.364;9.566;2023-08-06T10:59:46;98735.34;;;20.03;88.50
31681;BME280;18281;51.364;9.566;2023-08-06T11:02:11;98732.84;;;20.01;90.69
31681;BME280;18281;51.364;9.566;2023-08-06T11:04:37;98729.34;;;20.01;90.14
31681;BME280;18281;51.364;9.566;2023-08-06T11:07:03;98730.81;;;20.03;92.65
31681;BME280;18281;51.364;9.566;2023-08-06T11:09:28;98726.34;;;20.04;90.73
31681;BME280;18281;51.364;9.566;2023-08-06T11:11:53;98717.72;;;20.17;87.59
31681;BME280;18281;51.364;9.566;2023-08-06T11:14:18;98715.41;;;20.37;90.73
31681;BME280;18281;51.364;9.566;2023-08-06T11:16:44;98710.66;;;20.47;89.25
31681;BME280;18281;51.364;9.566;2023-08-06T11:19:09;98709.13;;;20.30;84.84
31681;BME280;18281;51.364;9.566;2023-08-06T11:21:35;98709.09;;;20.38;88.39
31681;BME280;18281;51.364;9.566;2023-08-06T11:24:00;98698.22;;;20.39;85.04
31681;BME280;18281;51.364;9.566;2023-08-06T11:26:26;98703.31;;;20.49;86.84
31681;BME280;18281;51.364;9.566;2023-08-06T11:28:52;98694.97;;;20.67;88.71
31681;BME280;18281;51.364;9.566;2023-08-06T11:31:18;98690.81;;;20.65;88.50
31681;BME280;18281;51.364;9.566;2023-08-06T11:33:44;98690.53;;;20.74;88.19
31681;BME280;18281;51.364;9.566;2023-08-06T11:36:09;98687.72;;;20.76;87.54
31681;BME280;18281;51.364;9.566;2023-08-06T11:38:34;98691.38;;;20.90;83.28
31681;BME280;18281;51.364;9.566;2023-08-06T11:40:59;98692.84;;;20.92;81.14
31681;BME280;18281;51.364;9.566;2023-08-06T11:43:24;98690.38;;;21.06;83.33
31681;BME280;18281;51.364;9.566;2023-08-06T11:45:50;98688.44;;;20.85;78.43
31681;BME280;18281;51.364;9.566;2023-08-06T11:48:16;98683.19;;;20.76;81.88
31681;BME280;18281;51.364;9.566;2023-08-06T11:50:41;98698.00;;;20.79;82.97
31681;BME280;18281;51.364;9.566;2023-08-06T11:53:07;98687.31;;;20.79;79.59
31681;BME280;18281;51.364;9.566;2023-08-06T11:55:32;98682.91;;;20.86;80.69
31681;BME280;18281;51.364;9.566;2023-08-06T11:57:57;98684.19;;;20.90;83.73
31681;BME280;18281;51.364;9.566;2023-08-06T12:00:26;98671.41;;;20.86;77.26
31681;BME280;18281;51.364;9.566;2023-08-06T12:02:52;98668.94;;;20.84;84.51
31681;BME280;18281;51.364;9.566;2023-08-06T12:05:18;98672.31;;;21.08;81.03
31681;BME280;18281;51.364;9.566;2023-08-06T12:07:51;98670.94;;;21.12;82.48
31681;BME280;18281;51.364;9.566;2023-08-06T12:10:17;98673.06;;;21.02;82.73
31681;BME280;18281;51.364;9.566;2023-08-06T12:12:42;98672.59;;;21.13;80.38
31681;BME280;18281;51.364;9.566;2023-08-06T12:15:11;98667.91;;;21.15;84.29
31681;BME280;18281;51.364;9.566;2023-08-06T12:17:36;98675.91;;;21.15;82.23
31681;BME280;18281;51.364;9.566;2023-08-06T12:20:02;98664.59;;;21.13;84.77
31681;BME280;18281;51.364;9.566;2023-08-06T12:22:29;98663.72;;;21.27;82.37
31681;BME280;18281;51.364;9.566;2023-08-06T12:24:57;98659.88;;;21.30;87.20
31681;BME280;18281;51.364;9.566;2023-08-06T12:27:22;98666.09;;;21.37;88.89
31681;BME280;18281;51.364;9.566;2023-08-06T12:29:48;98655.78;;;21.34;87.37
31681;BME280;18281;51.364;9.566;2023-08-06T12:32:13;98652.38;;;21.40;88.93
31681;BME280;18281;51.364;9.566;2023-08-06T12:34:39;98666.75;;;21.03;75.01
31681;BME280;18281;51.364;9.566;2023-08-06T12:37:04;98670.38;;;21.02;77.47
31681;BME280;18281;51.364;9.566;2023-08-06T12:39:30;98658.25;;;21.14;79.71
31681;BME280;18281;51.364;9.566;2023-08-06T12:41:56;98660.91;;;21.14;79.25
31681;BME280;18281;51.364;9.566;2023-08-06T12:44:22;98663.19;;;21.02;76.66
31681;BME280;18281;51.364;9.566;2023-08-06T12:46:48;98662.31;;;21.10;75.67
31681;BME280;18281;51.364;9.566;2023-08-06T12:49:13;98661.88;;;20.62;74.29
31681;BME280;18281;51.364;9.566;2023-08-06T12:51:38;98662.31;;;20.80;76.80
31681;BME280;18281;51.364;9.566;2023-08-06T12:54:04;98670.56;;;20.85;74.75
31681;BME280;18281;51.364;9.566;2023-08-06T12:56:29;98665.16;;;21.08;77.72
31681;BME280;18281;51.364;9.566;2023-08-06T12:58:54;98663.56;;;21.14;78.31
31681;BME280;18281;51.364;9.566;2023-08-06T13:01:19;98662.56;;;21.15;77.28
31681;BME280;18281;51.364;9.566;2023-08-06T13:03:45;98669.03;;;21.06;75.38
31681;BME280;18281;51.364;9.566;2023-08-06T13:06:10;98673.44;;;21.14;74.78
31681;BME280;18281;51.364;9.566;2023-08-06T13:08:36;98659.13;;;21.21;75.95
31681;BME280;18281;51.364;9.566;2023-08-06T13:11:01;98671.84;;;21.19;77.49
31681;BME280;18281;51.364;9.566;2023-08-06T13:13:26;98666.13;;;21.22;78.62